createdAt,value
2022-12-12T00:01:30.219Z,21.08
2022-12-12T00:03:31.794Z,20.63
2022-12-12T00:05:33.395Z,21.08
2022-12-12T00:07:34.892Z,20.58
2022-12-12T00:09:36.403Z,20.55
2022-12-12T00:11:37.897Z,20.17
2022-12-12T00:13:40.063Z,20.73
2022-12-12T00:15:41.564Z,22.05
2022-12-12T00:17:43.058Z,19.77
2022-12-12T00:19:44.522Z,21.10
2022-12-12T00:21:46.027Z,21.90
2022-12-12T00:23:47.829Z,22.52
2022-12-12T00:25:58.481Z,21.67
2022-12-12T00:28:00.504Z,20.30
2022-12-12T00:30:02.257Z,20.88
2022-12-12T00:32:03.870Z,20.70
2022-12-12T00:34:05.442Z,22.23
2022-12-12T00:36:07.458Z,22.10
2022-12-12T00:38:09.215Z,21.00
2022-12-12T00:40:11.476Z,20.45
2022-12-12T00:42:13.085Z,21.42
2022-12-12T00:44:14.521Z,20.25
2022-12-12T00:46:19.158Z,21.02
2022-12-12T00:48:20.988Z,22.10
2022-12-12T00:50:22.472Z,21.20
2022-12-12T00:52:23.945Z,21.05
2022-12-12T00:54:25.410Z,21.35
2022-12-12T00:56:28.963Z,21.23
2022-12-12T00:58:31.151Z,21.23
2022-12-12T01:00:33.446Z,20.63
2022-12-12T01:02:35.490Z,21.65
2022-12-12T01:04:36.964Z,20.33
2022-12-12T01:06:38.547Z,20.95
2022-12-12T01:08:41.206Z,19.58
2022-12-12T01:10:43.583Z,21.33
2022-12-12T01:12:45.268Z,20.58
2022-12-12T01:14:47.466Z,20.90
2022-12-12T01:16:48.955Z,19.88
2022-12-12T01:18:50.806Z,21.13
2022-12-12T01:20:52.848Z,19.92
2022-12-12T01:22:54.845Z,19.42
2022-12-12T01:24:57.000Z,20.35
2022-12-12T01:26:58.504Z,20.48
2022-12-12T01:28:59.978Z,19.70
2022-12-12T01:31:01.967Z,20.83
2022-12-12T01:33:03.853Z,21.38
2022-12-12T01:35:08.192Z,20.45
2022-12-12T01:37:09.682Z,19.75
2022-12-12T01:39:11.234Z,19.85
2022-12-12T01:41:13.701Z,20.88
2022-12-12T01:43:16.925Z,20.67
2022-12-12T01:45:56.032Z,20.63
2022-12-12T01:48:03.456Z,23.90
2022-12-12T01:50:09.430Z,23.10
2022-12-12T01:52:15.312Z,22.10
2022-12-12T01:54:21.955Z,20.92
2022-12-12T01:56:23.769Z,19.20
2022-12-12T01:58:25.966Z,19.65
2022-12-12T02:00:27.556Z,20.40
2022-12-12T02:02:29.942Z,19.15
2022-12-12T02:04:31.913Z,18.80
2022-12-12T02:06:33.952Z,19.85
2022-12-12T02:08:37.203Z,20.20
2022-12-12T02:10:38.883Z,20.02
2022-12-12T02:12:40.394Z,20.90
2022-12-12T02:14:48.570Z,20.13
2022-12-12T02:16:57.395Z,20.27
2022-12-12T02:21:15.452Z,18.73
2022-12-12T02:23:30.238Z,20.00
2022-12-12T02:26:01.079Z,18.95
2022-12-12T02:28:17.760Z,20.33
2022-12-12T02:30:22.933Z,18.42
2022-12-12T02:32:46.355Z,20.05
2022-12-12T02:35:15.232Z,21.13
2022-12-12T02:37:25.995Z,20.63
2022-12-12T02:39:51.811Z,19.80
2022-12-12T02:42:00.454Z,20.25
2022-12-12T02:44:18.707Z,20.55
2022-12-12T02:46:34.365Z,20.38
2022-12-12T02:48:55.494Z,19.77
2022-12-12T02:51:00.744Z,19.52
2022-12-12T02:53:02.189Z,19.73
2022-12-12T02:55:05.036Z,19.80
2022-12-12T02:57:24.001Z,21.00
2022-12-12T02:59:28.175Z,20.02
2022-12-12T03:01:54.081Z,20.08
2022-12-12T03:04:24.779Z,19.70
2022-12-12T03:06:58.702Z,20.38
2022-12-12T03:09:24.729Z,20.17
2022-12-12T03:11:38.091Z,20.30
2022-12-12T03:13:52.190Z,19.38
2022-12-12T03:15:56.607Z,20.90
2022-12-12T03:18:23.049Z,19.50
2022-12-12T03:20:45.188Z,20.80
2022-12-12T03:22:55.043Z,21.15
2022-12-12T03:25:15.526Z,20.98
2022-12-12T03:27:23.895Z,21.23
2022-12-12T03:29:34.220Z,20.10
2022-12-12T03:31:39.778Z,20.33
2022-12-12T03:33:48.807Z,19.48
2022-12-12T03:36:10.152Z,20.05
2022-12-12T03:38:18.918Z,19.15
2022-12-12T03:42:50.643Z,18.67
2022-12-12T03:45:07.592Z,19.38
2022-12-12T03:47:19.078Z,19.50
2022-12-12T03:49:27.101Z,19.67
2022-12-12T03:51:32.014Z,19.00
2022-12-12T03:53:33.376Z,18.92
2022-12-12T03:55:34.775Z,18.98
2022-12-12T03:57:42.369Z,19.85
2022-12-12T04:00:08.632Z,18.67
2022-12-12T04:02:21.588Z,18.63
2022-12-12T04:04:39.013Z,18.35
2022-12-12T04:06:53.534Z,17.33
2022-12-12T04:09:19.353Z,18.23
2022-12-12T04:11:40.375Z,17.45
2022-12-12T04:14:07.665Z,17.70
2022-12-12T04:16:14.296Z,17.23
2022-12-12T04:18:37.589Z,18.27
2022-12-12T04:21:06.274Z,17.30
2022-12-12T04:23:56.373Z,17.73
2022-12-12T04:26:19.277Z,17.08
2022-12-12T04:28:20.798Z,17.27
2022-12-12T04:30:22.284Z,17.38
2022-12-12T04:32:50.587Z,18.02
2022-12-12T04:35:02.126Z,17.40
2022-12-12T04:37:06.577Z,17.33
2022-12-12T04:39:10.085Z,18.65
2022-12-12T04:41:13.266Z,17.23
2022-12-12T04:43:22.294Z,18.05
2022-12-12T04:45:29.199Z,18.50
2022-12-12T04:47:32.004Z,17.75
2022-12-12T04:49:36.381Z,19.50
2022-12-12T04:51:43.517Z,19.23
2022-12-12T04:53:50.751Z,18.42
2022-12-12T04:56:00.586Z,19.33
2022-12-12T04:58:03.210Z,18.90
2022-12-12T05:00:04.956Z,19.67
2022-12-12T05:02:18.158Z,18.90
2022-12-12T05:04:27.605Z,17.77
2022-12-12T05:06:39.378Z,17.58
2022-12-12T05:08:53.708Z,18.67
2022-12-12T05:10:59.582Z,19.00
2022-12-12T05:13:01.290Z,20.30
2022-12-12T05:15:02.901Z,19.73
2022-12-12T05:17:11.447Z,19.88
2022-12-12T05:19:12.977Z,19.67
2022-12-12T05:21:15.137Z,19.60
2022-12-12T05:23:17.328Z,19.27
2022-12-12T05:25:18.768Z,20.42
2022-12-12T05:27:20.222Z,18.92
2022-12-12T05:29:21.660Z,20.25
2022-12-12T05:31:23.923Z,18.90
2022-12-12T05:33:25.394Z,18.98
2022-12-12T05:35:27.400Z,17.35
2022-12-12T05:37:28.832Z,17.55
2022-12-12T05:39:30.292Z,18.05
2022-12-12T05:41:31.795Z,17.50
2022-12-12T05:43:33.573Z,16.85
2022-12-12T05:45:35.218Z,16.88
2022-12-12T05:47:36.721Z,15.98
2022-12-12T05:49:38.189Z,15.80
2022-12-12T05:51:39.879Z,16.70
2022-12-12T05:53:43.237Z,16.75
2022-12-12T05:55:45.133Z,16.88
2022-12-12T05:57:46.557Z,16.17
2022-12-12T05:59:48.847Z,16.90
2022-12-12T06:01:50.311Z,17.13
2022-12-12T06:03:51.756Z,17.70
2022-12-12T06:05:53.302Z,17.48
2022-12-12T06:07:54.768Z,17.80
2022-12-12T06:09:56.226Z,18.40
2022-12-12T06:11:57.789Z,18.67
2022-12-12T06:13:59.248Z,18.45
2022-12-12T06:16:09.272Z,17.95
2022-12-12T06:18:12.199Z,17.58
2022-12-12T06:20:17.123Z,17.95
2022-12-12T06:22:18.853Z,18.58
2022-12-12T06:24:20.294Z,18.88
2022-12-12T06:26:22.188Z,16.88
2022-12-12T06:28:23.711Z,18.55
2022-12-12T06:30:25.228Z,19.17
2022-12-12T06:32:26.697Z,18.42
2022-12-12T06:34:28.180Z,18.35
2022-12-12T06:36:30.237Z,18.30
2022-12-12T06:38:32.456Z,18.45
2022-12-12T06:40:34.024Z,18.90
2022-12-12T06:42:35.505Z,18.20
2022-12-12T06:44:36.928Z,18.70
2022-12-12T06:46:39.019Z,19.50
2022-12-12T06:48:40.676Z,19.05
2022-12-12T06:50:44.213Z,19.33
2022-12-12T06:52:45.641Z,18.20
2022-12-12T06:54:47.241Z,19.52
2022-12-12T06:56:49.482Z,19.08
2022-12-12T06:58:51.710Z,20.17
2022-12-12T07:00:53.808Z,20.00
2022-12-12T07:02:55.277Z,20.33
2022-12-12T07:04:57.368Z,19.15
2022-12-12T07:06:58.843Z,19.90
2022-12-12T07:09:00.525Z,20.25
2022-12-12T07:11:07.129Z,19.23
2022-12-12T07:13:08.597Z,19.25
2022-12-12T07:15:10.706Z,20.27
2022-12-12T07:17:12.343Z,19.83
2022-12-12T07:19:13.792Z,18.75
2022-12-12T07:21:18.208Z,19.27
2022-12-12T07:23:20.082Z,20.98
2022-12-12T07:25:21.545Z,20.00
2022-12-12T07:27:23.102Z,21.13
2022-12-12T07:29:24.618Z,19.45
2022-12-12T07:31:26.722Z,19.85
2022-12-12T07:33:38.253Z,21.02
2022-12-12T07:35:44.999Z,22.02
2022-12-12T07:37:47.348Z,21.63
2022-12-12T07:39:48.769Z,21.23
2022-12-12T07:41:50.288Z,21.35
2022-12-12T07:43:52.560Z,21.20
2022-12-12T07:45:54.540Z,22.08
2022-12-12T07:47:56.011Z,25.20
2022-12-12T07:49:57.580Z,22.17
2022-12-12T07:51:59.029Z,24.25
2022-12-12T07:54:00.712Z,22.30
2022-12-12T07:56:06.451Z,22.17
2022-12-12T07:58:07.974Z,21.73
2022-12-12T08:00:13.243Z,21.70
2022-12-12T08:02:14.735Z,23.15
2022-12-12T08:04:16.224Z,22.13
2022-12-12T08:06:19.059Z,22.50
2022-12-12T08:08:21.033Z,22.83
2022-12-12T08:10:22.765Z,21.02
2022-12-12T08:12:24.223Z,22.77
2022-12-12T08:14:26.313Z,22.35
2022-12-12T08:16:29.875Z,22.58
2022-12-12T08:18:32.023Z,23.73
2022-12-12T08:20:33.548Z,22.17
2022-12-12T08:22:35.111Z,22.38
2022-12-12T08:24:36.594Z,22.30
2022-12-12T08:26:38.107Z,25.13
2022-12-12T08:28:41.469Z,23.33
2022-12-12T08:30:42.979Z,23.88
2022-12-12T08:32:44.458Z,22.85
2022-12-12T08:34:47.186Z,23.13
2022-12-12T08:36:49.266Z,22.75
2022-12-12T08:38:51.732Z,23.27
2022-12-12T08:40:53.185Z,23.90
2022-12-12T08:42:54.608Z,23.70
2022-12-12T08:44:56.049Z,23.85
2022-12-12T08:46:57.620Z,24.98
2022-12-12T08:48:59.118Z,24.95
2022-12-12T08:51:00.813Z,24.92
2022-12-12T08:53:02.294Z,25.27
2022-12-12T08:55:04.152Z,23.48
2022-12-12T08:57:05.623Z,24.58
2022-12-12T08:59:07.108Z,24.65
2022-12-12T09:01:16.434Z,24.75
2022-12-12T09:03:18.511Z,26.52
2022-12-12T09:05:19.971Z,24.17
2022-12-12T09:07:21.893Z,26.08
2022-12-12T09:09:23.398Z,25.80
2022-12-12T09:11:25.230Z,26.00
2022-12-12T09:13:26.723Z,26.00
2022-12-12T09:15:28.181Z,24.85
2022-12-12T09:17:29.656Z,27.40
2022-12-12T09:19:31.154Z,26.23
2022-12-12T09:21:32.643Z,25.08
2022-12-12T09:23:34.616Z,27.60
2022-12-12T09:25:38.835Z,26.23
2022-12-12T09:27:43.926Z,27.70
2022-12-12T09:29:45.578Z,26.40
2022-12-12T09:31:47.129Z,25.77
2022-12-12T09:33:48.992Z,26.70
2022-12-12T09:35:58.147Z,25.95
2022-12-12T09:37:59.625Z,25.50
2022-12-12T09:40:01.379Z,26.90
2022-12-12T09:42:27.505Z,26.42
2022-12-12T09:44:31.035Z,25.40
2022-12-12T09:46:44.142Z,24.88
2022-12-12T09:48:46.709Z,24.30
2022-12-12T09:50:49.809Z,24.75
2022-12-12T09:52:51.712Z,25.10
2022-12-12T09:54:54.098Z,24.20
2022-12-12T09:57:04.583Z,24.23
2022-12-12T09:59:18.762Z,24.58
2022-12-12T10:01:27.164Z,24.45
2022-12-12T10:03:55.699Z,23.73
2022-12-12T10:08:25.564Z,22.88
2022-12-12T10:10:33.271Z,23.48
2022-12-12T10:12:34.893Z,23.23
2022-12-12T10:14:59.235Z,23.95
2022-12-12T10:17:03.161Z,23.27
2022-12-12T10:19:14.446Z,23.60
2022-12-12T10:21:20.904Z,23.50
2022-12-12T10:23:32.578Z,23.42
2022-12-12T10:25:52.322Z,24.33
2022-12-12T10:28:12.941Z,24.10
2022-12-12T10:30:17.955Z,24.20
2022-12-12T10:32:54.807Z,24.23
2022-12-12T10:35:24.539Z,23.15
2022-12-12T10:37:57.326Z,22.02
2022-12-12T10:40:01.744Z,23.63
2022-12-12T10:42:07.964Z,23.13
2022-12-12T10:44:27.674Z,22.70
2022-12-12T10:46:41.481Z,22.85
2022-12-12T10:48:44.317Z,22.60
2022-12-12T10:50:56.195Z,22.48
2022-12-12T10:52:57.637Z,21.95
2022-12-12T10:55:00.539Z,21.40
2022-12-12T10:57:06.671Z,22.25
2022-12-12T10:59:21.779Z,24.58
2022-12-12T11:02:07.854Z,23.13
2022-12-12T11:03:54.911Z,19.98
2022-12-12T11:05:57.580Z,16.83
2022-12-12T11:08:17.985Z,17.17
2022-12-12T11:10:26.867Z,17.23
2022-12-12T11:12:34.818Z,15.23
2022-12-12T11:14:39.642Z,16.00
2022-12-12T11:16:43.753Z,14.73
2022-12-12T11:19:10.995Z,15.20
2022-12-12T11:21:13.966Z,14.15
2022-12-12T11:23:25.425Z,14.20
2022-12-12T11:25:32.324Z,14.80
2022-12-12T11:27:41.340Z,13.55
2022-12-12T11:29:46.707Z,13.52
2022-12-12T11:31:48.241Z,14.48
2022-12-12T11:33:57.036Z,14.13
2022-12-12T11:36:01.805Z,13.88
2022-12-12T11:38:16.440Z,14.38
2022-12-12T11:40:30.175Z,14.50
2022-12-12T11:42:34.082Z,14.90
2022-12-12T11:44:37.649Z,14.73
2022-12-12T11:46:39.136Z,14.38
2022-12-12T11:48:44.646Z,14.73
2022-12-12T11:50:46.441Z,14.02
2022-12-12T11:52:49.347Z,14.25
2022-12-12T11:54:52.699Z,14.18
2022-12-12T11:57:02.124Z,13.43
2022-12-12T11:59:24.681Z,13.73
2022-12-12T12:01:45.234Z,13.23
2022-12-12T12:04:15.978Z,14.32
2022-12-12T12:06:51.397Z,13.70
2022-12-12T12:08:59.040Z,14.05
2022-12-12T12:11:12.386Z,14.82
2022-12-12T12:13:38.100Z,14.30
2022-12-12T12:15:48.826Z,14.55
2022-12-12T12:18:08.973Z,13.85
2022-12-12T12:20:29.909Z,13.27
2022-12-12T12:22:48.410Z,13.75
2022-12-12T12:25:13.409Z,13.65
2022-12-12T12:27:27.617Z,13.55
2022-12-12T12:29:49.881Z,13.55
2022-12-12T12:32:03.227Z,13.65
2022-12-12T12:34:18.286Z,13.18
2022-12-12T12:36:29.421Z,13.40
2022-12-12T12:38:55.583Z,13.45
2022-12-12T12:41:37.740Z,12.00
2022-12-12T12:44:04.150Z,11.18
2022-12-12T12:46:10.815Z,11.23
2022-12-12T12:48:18.071Z,11.00
2022-12-12T12:50:38.330Z,11.30
2022-12-12T12:52:46.527Z,11.20
2022-12-12T12:54:48.969Z,8.23
2022-12-12T12:57:02.757Z,10.85
2022-12-12T12:59:18.262Z,11.15
2022-12-12T13:01:37.221Z,11.32
2022-12-12T13:03:47.198Z,11.75
2022-12-12T13:05:55.439Z,12.25
2022-12-12T13:08:50.921Z,11.85
2022-12-12T13:11:02.776Z,11.55
2022-12-12T13:13:14.951Z,11.57
2022-12-12T13:15:36.904Z,11.32
2022-12-12T13:18:01.261Z,12.20
2022-12-12T13:20:03.878Z,11.90
2022-12-12T13:22:13.868Z,11.90
2022-12-12T13:24:25.481Z,12.60
2022-12-12T13:26:39.171Z,11.85
2022-12-12T13:28:57.498Z,12.18
2022-12-12T13:31:31.724Z,10.98
2022-12-12T13:33:48.334Z,11.48
2022-12-12T13:35:54.615Z,11.10
2022-12-12T13:37:56.489Z,11.82
2022-12-12T13:40:04.834Z,12.50
2022-12-12T13:42:11.142Z,12.55
2022-12-12T13:44:33.369Z,13.48
2022-12-12T13:46:37.599Z,11.90
2022-12-12T13:48:47.081Z,11.63
2022-12-12T13:51:27.399Z,12.18
2022-12-12T13:53:28.900Z,12.32
2022-12-12T13:55:30.357Z,13.27
2022-12-12T13:57:32.352Z,13.23
2022-12-12T13:59:53.722Z,13.30
2022-12-12T14:02:03.196Z,12.90
2022-12-12T14:04:05.153Z,12.77
2022-12-12T14:06:12.229Z,13.05
2022-12-12T14:08:13.727Z,13.45
2022-12-12T14:10:23.261Z,13.25
2022-12-12T14:12:33.325Z,13.20
2022-12-12T14:14:36.832Z,14.10
2022-12-12T14:16:38.698Z,13.52
2022-12-12T14:18:56.556Z,12.70
2022-12-12T14:21:06.648Z,14.10
2022-12-12T14:23:20.211Z,12.90
2022-12-12T14:25:33.739Z,13.90
2022-12-12T14:27:50.106Z,13.23
2022-12-12T14:29:51.553Z,13.40
2022-12-12T14:31:56.199Z,14.55
2022-12-12T14:34:04.655Z,15.38
2022-12-12T14:36:28.349Z,14.75
2022-12-12T14:38:35.568Z,13.75
2022-12-12T14:40:43.305Z,13.82
2022-12-12T14:43:18.859Z,13.90
2022-12-12T14:45:27.569Z,13.88
2022-12-12T14:47:28.992Z,13.48
2022-12-12T14:49:30.439Z,13.93
2022-12-12T14:51:35.928Z,14.95
2022-12-12T14:53:37.329Z,14.05
2022-12-12T14:55:50.961Z,14.02
2022-12-12T14:57:52.550Z,14.13
2022-12-12T14:59:54.327Z,14.60
2022-12-12T15:02:00.674Z,14.45
2022-12-12T15:04:05.648Z,15.05
2022-12-12T15:06:38.262Z,14.52
2022-12-12T15:08:41.856Z,14.50
2022-12-12T15:10:43.309Z,14.00
2022-12-12T15:12:45.001Z,13.25
2022-12-12T15:14:46.422Z,14.93
2022-12-12T15:17:13.663Z,15.30
2022-12-12T15:19:19.428Z,15.20
2022-12-12T15:21:20.973Z,15.50
2022-12-12T15:23:23.304Z,15.10
2022-12-12T15:25:30.792Z,15.70
2022-12-12T15:27:47.050Z,16.83
2022-12-12T15:32:02.884Z,15.13
2022-12-12T15:34:04.456Z,15.85
2022-12-12T15:36:17.362Z,14.93
2022-12-12T15:38:19.138Z,16.02
2022-12-12T15:40:32.743Z,14.73
2022-12-12T15:42:34.462Z,16.83
2022-12-12T15:44:36.544Z,15.75
2022-12-12T15:46:38.101Z,16.15
2022-12-12T15:48:44.020Z,15.30
2022-12-12T15:50:45.910Z,16.92
2022-12-12T15:53:02.515Z,16.48
2022-12-12T15:55:05.182Z,18.08
2022-12-12T15:57:06.711Z,15.48
2022-12-12T15:59:08.122Z,15.93
2022-12-12T16:01:20.334Z,15.60
2022-12-12T16:03:23.611Z,15.23
2022-12-12T16:05:30.331Z,16.60
2022-12-12T16:07:36.560Z,15.43
2022-12-12T16:09:38.062Z,16.52
2022-12-12T16:11:55.389Z,15.27
2022-12-12T16:13:57.147Z,18.77
2022-12-12T16:16:02.323Z,15.93
2022-12-12T16:18:07.798Z,17.27
2022-12-12T16:20:14.479Z,15.07
2022-12-12T16:22:39.518Z,16.48
2022-12-12T16:24:46.451Z,16.05
2022-12-12T16:26:48.136Z,16.85
2022-12-12T16:28:49.573Z,17.00
2022-12-12T16:30:57.657Z,18.67
2022-12-12T16:33:30.544Z,17.48
2022-12-12T16:35:32.003Z,17.63
2022-12-12T16:37:33.658Z,18.13
2022-12-12T16:39:36.058Z,17.45
2022-12-12T16:41:37.690Z,17.77
2022-12-12T16:43:39.781Z,16.38
2022-12-12T16:45:42.258Z,17.35
2022-12-12T16:47:43.725Z,17.10
2022-12-12T16:49:45.629Z,16.55
2022-12-12T16:51:47.160Z,17.77
2022-12-12T16:53:48.911Z,18.20
2022-12-12T16:55:51.764Z,19.42
2022-12-12T16:57:53.194Z,18.65
2022-12-12T16:59:54.645Z,19.20
2022-12-12T17:01:56.106Z,20.45
2022-12-12T17:03:57.657Z,20.88
2022-12-12T17:06:00.076Z,19.85
2022-12-12T17:08:02.350Z,21.48
2022-12-12T17:10:04.729Z,22.27
2022-12-12T17:12:08.798Z,22.27
2022-12-12T17:14:24.652Z,22.10
2022-12-12T17:16:28.156Z,22.55
2022-12-12T17:18:29.726Z,22.58
2022-12-12T17:20:37.455Z,23.98
2022-12-12T17:22:40.680Z,23.90
2022-12-12T17:24:42.197Z,22.85
2022-12-12T17:26:43.724Z,24.15
2022-12-12T17:28:45.161Z,22.83
2022-12-12T17:30:49.948Z,25.27
2022-12-12T17:35:11.003Z,30.00
2022-12-12T17:37:12.518Z,28.17
2022-12-12T17:39:14.026Z,27.27
2022-12-12T17:41:15.596Z,25.98
2022-12-12T17:43:17.077Z,24.17
2022-12-12T17:45:19.442Z,25.30
2022-12-12T17:47:20.875Z,22.92
2022-12-12T17:49:22.325Z,21.90
2022-12-12T17:51:24.342Z,22.63
2022-12-12T17:53:26.801Z,22.63
2022-12-12T17:55:53.472Z,22.33
2022-12-12T17:57:49.689Z,21.33
2022-12-12T17:59:51.489Z,21.52
2022-12-12T18:01:53.802Z,22.70
2022-12-12T18:03:55.896Z,21.35
2022-12-12T18:05:59.949Z,22.17
2022-12-12T18:08:01.590Z,21.95
2022-12-12T18:10:04.011Z,22.73
2022-12-12T18:12:05.995Z,26.30
2022-12-12T18:14:08.230Z,23.52
2022-12-12T18:16:12.751Z,25.25
2022-12-12T18:18:14.410Z,26.98
2022-12-12T18:20:16.285Z,26.38
2022-12-12T18:22:17.962Z,25.05
2022-12-12T18:24:21.321Z,27.27
2022-12-12T18:26:24.123Z,24.73
2022-12-12T18:28:25.545Z,25.52
2022-12-12T18:30:27.074Z,25.00
2022-12-12T18:32:28.821Z,25.88
2022-12-12T18:34:30.386Z,31.15
2022-12-12T18:36:32.475Z,33.35
2022-12-12T18:38:35.324Z,31.15
2022-12-12T18:40:39.259Z,28.40
2022-12-12T18:42:40.709Z,26.50
2022-12-12T18:44:42.146Z,27.20
2022-12-12T18:46:44.069Z,24.85
2022-12-12T18:48:47.236Z,25.67
2022-12-12T18:50:48.750Z,24.60
2022-12-12T18:52:50.177Z,26.30
2022-12-12T18:54:52.186Z,25.65
2022-12-12T18:56:53.638Z,26.42
2022-12-12T18:58:57.275Z,24.88
2022-12-12T19:01:07.092Z,26.00
2022-12-12T19:03:09.094Z,24.23
2022-12-12T19:05:13.326Z,25.08
2022-12-12T19:07:15.164Z,26.00
2022-12-12T19:09:18.480Z,24.02
2022-12-12T19:11:21.214Z,25.13
2022-12-12T19:13:22.709Z,25.73
2022-12-12T19:15:24.168Z,24.48
2022-12-12T19:17:26.899Z,25.00
2022-12-12T19:19:28.405Z,24.10
2022-12-12T19:21:29.980Z,24.60
2022-12-12T19:23:31.815Z,23.20
2022-12-12T19:25:39.194Z,23.55
2022-12-12T19:27:44.697Z,22.80
2022-12-12T19:29:46.162Z,22.52
2022-12-12T19:31:48.150Z,21.85
2022-12-12T19:33:49.610Z,23.17
2022-12-12T19:35:51.112Z,22.63
2022-12-12T19:37:52.624Z,23.45
2022-12-12T19:39:54.348Z,23.70
2022-12-12T19:41:55.807Z,25.75
2022-12-12T19:44:01.505Z,26.55
2022-12-12T19:46:09.632Z,26.63
2022-12-12T19:48:11.533Z,18.48
2022-12-12T19:50:13.501Z,25.63
2022-12-12T19:52:15.230Z,25.98
2022-12-12T19:54:19.576Z,27.00
2022-12-12T19:56:23.788Z,24.73
2022-12-12T19:58:25.286Z,25.58
2022-12-12T20:00:26.802Z,25.55
2022-12-12T20:02:28.252Z,26.35
2022-12-12T20:04:30.206Z,23.92
2022-12-12T20:06:40.853Z,24.63
2022-12-12T20:08:43.074Z,26.13
2022-12-12T20:10:44.553Z,25.58
2022-12-12T20:12:56.095Z,27.08
2022-12-12T20:14:59.816Z,25.85
2022-12-12T20:17:03.174Z,23.77
2022-12-12T20:19:04.863Z,23.48
2022-12-12T20:21:06.781Z,24.33
2022-12-12T20:23:08.299Z,23.52
2022-12-12T20:25:10.041Z,21.50
2022-12-12T20:27:11.521Z,22.48
2022-12-12T20:29:14.769Z,22.58
2022-12-12T20:31:19.020Z,23.70
2022-12-12T20:33:20.529Z,24.08
2022-12-12T20:35:22.000Z,21.65
2022-12-12T20:37:23.662Z,23.38
2022-12-12T20:39:25.919Z,25.73
2022-12-12T20:41:30.759Z,23.50
2022-12-12T20:43:32.223Z,24.20
2022-12-12T20:45:37.578Z,23.85
2022-12-12T20:47:39.023Z,22.98
2022-12-12T20:49:40.483Z,22.92
2022-12-12T20:51:58.570Z,24.33
2022-12-12T20:54:03.243Z,24.00
2022-12-12T20:56:10.786Z,23.35
2022-12-12T20:58:12.888Z,25.02
2022-12-12T21:00:15.466Z,23.83
2022-12-12T21:02:17.080Z,25.60
2022-12-12T21:04:18.758Z,26.80
2022-12-12T21:06:23.102Z,25.42
2022-12-12T21:08:24.742Z,25.35
2022-12-12T21:10:26.276Z,24.48
2022-12-12T21:12:27.727Z,26.73
2022-12-12T21:14:30.815Z,25.50
2022-12-12T21:16:35.429Z,25.38
2022-12-12T21:18:37.331Z,25.65
2022-12-12T21:20:44.125Z,24.70
2022-12-12T21:22:45.578Z,23.98
2022-12-12T21:24:47.089Z,24.10
2022-12-12T21:26:48.901Z,22.55
2022-12-12T21:28:50.799Z,22.65
2022-12-12T21:30:52.303Z,22.38
2022-12-12T21:32:53.772Z,23.15
2022-12-12T21:34:55.226Z,23.90
2022-12-12T21:36:56.913Z,22.63
2022-12-12T21:38:59.578Z,22.15
2022-12-12T21:41:05.288Z,23.33
2022-12-12T21:43:06.748Z,23.70
2022-12-12T21:45:09.199Z,22.70
2022-12-12T21:47:10.649Z,22.85
2022-12-12T21:49:28.245Z,22.95
2022-12-12T21:51:29.844Z,22.77
2022-12-12T21:53:34.995Z,24.00
2022-12-12T21:55:37.915Z,22.38
2022-12-12T21:57:39.353Z,22.08
2022-12-12T21:59:41.933Z,21.23
2022-12-12T22:01:43.640Z,23.90
2022-12-12T22:03:46.995Z,22.35
2022-12-12T22:05:48.465Z,21.83
2022-12-12T22:07:49.951Z,21.17
2022-12-12T22:09:57.853Z,23.15
2022-12-12T22:12:11.712Z,24.48
2022-12-12T22:14:21.583Z,23.17
2022-12-12T22:16:23.472Z,23.63
2022-12-12T22:18:24.987Z,23.10
2022-12-12T22:20:26.475Z,27.67
2022-12-12T22:22:29.009Z,24.73
2022-12-12T22:24:30.458Z,25.25
2022-12-12T22:26:38.333Z,23.40
2022-12-12T22:28:39.875Z,22.77
2022-12-12T22:30:42.134Z,23.25
2022-12-12T22:32:43.576Z,22.77
2022-12-12T22:34:45.016Z,24.23
2022-12-12T22:36:47.064Z,23.55
2022-12-12T22:38:48.499Z,22.17
2022-12-12T22:40:56.442Z,23.45
2022-12-12T22:42:58.918Z,22.75
2022-12-12T22:45:00.635Z,23.25
2022-12-12T22:47:02.191Z,24.00
2022-12-12T22:49:03.667Z,27.00
2022-12-12T22:51:32.765Z,24.52
2022-12-12T22:53:36.177Z,24.58
2022-12-12T22:55:40.996Z,24.42
2022-12-12T22:57:45.082Z,26.05
2022-12-12T22:59:47.562Z,28.17
2022-12-12T23:01:49.064Z,24.33
2022-12-12T23:03:52.054Z,24.05
2022-12-12T23:05:53.533Z,22.55
2022-12-12T23:07:55.085Z,23.70
2022-12-12T23:09:58.907Z,23.38
2022-12-12T23:12:00.371Z,23.65
2022-12-12T23:14:04.891Z,23.02
2022-12-12T23:16:08.513Z,23.88
2022-12-12T23:18:09.981Z,22.80
2022-12-12T23:20:11.501Z,22.33
2022-12-12T23:22:12.997Z,22.10
2022-12-12T23:24:15.178Z,22.90
2022-12-12T23:26:22.473Z,22.80
2022-12-12T23:28:23.967Z,23.45
2022-12-12T23:30:25.405Z,23.73
2022-12-12T23:32:26.836Z,21.15
2022-12-12T23:34:28.912Z,24.30
2022-12-12T23:36:31.191Z,22.40
2022-12-12T23:38:32.728Z,29.75
2022-12-12T23:40:34.175Z,23.88
2022-12-12T23:42:35.606Z,24.55
2022-12-12T23:44:37.049Z,24.88
2022-12-12T23:46:38.668Z,23.73
2022-12-12T23:48:40.101Z,21.63
2022-12-12T23:50:41.539Z,22.52
2022-12-12T23:52:43.019Z,22.65
2022-12-12T23:54:44.468Z,22.45
2022-12-12T23:56:47.560Z,22.10
2022-12-12T23:58:49.012Z,22.15
